RJOA Airport Information

Runway Information
Runway 10 Length 9842 ft width 200 ft
Elevation 1072 ft Threshold ft Heading 90
Runway 28 Length 9842 ft Width 200 ft
Elevation 1067 ft Threshold ft Heading 270
Airport Frequencies
Type APP Name APP Frequency 124.05 MHZ
Type ATIS Name ATIS Frequency 127.25 MHZ
Type DEP Name DEP Frequency 119.9 MHZ
Type RDR Name RADAR Frequency 124.05 MHZ
Type TWR Name TWR Frequency 118.6 MHZ
Airport Navaids
Type VOR-DME Name Hongo Frequency 117900 KHZ
Airport Weather Information & NOTAM
ADDS - METARS form results

(0504 UTC 03 December 2022)
Data provider http://aviationweather.gov/metar/data/
 
Forecast for: RJOA (NEW HIROSHIMA , JP)
Text: TAF RJOA 022305Z 0300/0406 20005KT 9999 FEW025
Forecast period: 0000 UTC 03 December 2022 to 0600 UTC 04 December 2022
Forecast type: FROM: standard forecast or significant change
Winds: from the SSW (200 degrees) at 6 MPH (5 knots; 2.6 m/s)
Visibility: 6 or more miles (10+ km)
Ceiling: at least 12,000 feet AGL
Clouds: few clouds at 2500 feet AGL
Weather: no significant weather forecast for this period